createdAt,value
2022-10-31T00:01:29.249Z,11.73
2022-10-31T00:03:57.131Z,11.76
2022-10-31T00:06:24.933Z,11.73
2022-10-31T00:08:55.142Z,11.76
2022-10-31T00:11:22.944Z,11.67
2022-10-31T00:13:50.556Z,11.65
2022-10-31T00:16:20.312Z,11.62
2022-10-31T00:18:52.122Z,11.56
2022-10-31T00:21:19.867Z,11.66
2022-10-31T00:23:47.949Z,11.63
2022-10-31T00:26:16.133Z,11.64
2022-10-31T00:28:43.895Z,11.63
2022-10-31T00:31:13.337Z,11.63
2022-10-31T00:33:42.282Z,11.64
2022-10-31T00:36:13.813Z,11.62
2022-10-31T00:38:41.569Z,11.63
2022-10-31T00:41:09.289Z,11.66
2022-10-31T00:43:36.956Z,11.64
2022-10-31T00:46:04.595Z,11.58
2022-10-31T00:48:32.194Z,11.62
2022-10-31T00:50:59.948Z,11.65
2022-10-31T00:53:28.828Z,11.63
2022-10-31T00:55:56.590Z,11.67
2022-10-31T00:58:24.199Z,11.70
2022-10-31T01:00:55.934Z,11.67
2022-10-31T01:03:24.654Z,11.71
2022-10-31T01:06:03.026Z,11.71
2022-10-31T01:08:32.036Z,11.77
2022-10-31T01:11:01.395Z,11.71
2022-10-31T01:13:29.174Z,11.67
2022-10-31T01:15:57.611Z,11.70
2022-10-31T01:18:25.714Z,11.63
2022-10-31T01:21:01.500Z,11.66
2022-10-31T01:23:29.714Z,11.70
2022-10-31T01:26:11.057Z,11.75
2022-10-31T01:28:40.562Z,11.72
2022-10-31T01:31:09.994Z,11.59
2022-10-31T01:33:38.859Z,11.57
2022-10-31T01:36:14.366Z,11.51
2022-10-31T01:38:43.175Z,11.46
2022-10-31T01:41:16.822Z,11.37
2022-10-31T01:43:46.618Z,11.33
2022-10-31T01:46:15.461Z,11.30
2022-10-31T01:48:43.736Z,11.26
2022-10-31T01:51:15.502Z,11.22
2022-10-31T01:53:45.611Z,11.22
2022-10-31T01:56:15.584Z,11.18
2022-10-31T01:58:44.232Z,11.19
2022-10-31T02:01:12.523Z,11.19
2022-10-31T02:03:40.451Z,11.19
2022-10-31T02:06:15.603Z,11.19
2022-10-31T02:08:44.421Z,11.20
2022-10-31T02:11:14.180Z,11.14
2022-10-31T02:13:42.011Z,11.10
2022-10-31T02:16:11.629Z,11.08
2022-10-31T02:18:39.286Z,11.07
2022-10-31T02:21:17.186Z,11.03
2022-10-31T02:24:23.581Z,11.09
2022-10-31T02:27:10.059Z,11.13
2022-10-31T02:30:09.233Z,11.06
2022-10-31T02:32:48.874Z,10.99
2022-10-31T02:35:30.150Z,11.13
2022-10-31T02:38:03.323Z,11.08
2022-10-31T02:40:37.635Z,11.11
2022-10-31T02:45:50.677Z,11.00
2022-10-31T02:48:22.470Z,11.00
2022-10-31T02:50:57.045Z,11.02
2022-10-31T02:53:24.738Z,11.11
2022-10-31T02:56:00.168Z,11.09
2022-10-31T02:58:32.499Z,11.02
2022-10-31T03:01:25.411Z,10.98
2022-10-31T03:04:14.433Z,11.00
2022-10-31T03:06:48.455Z,10.99
2022-10-31T03:09:25.363Z,10.97
2022-10-31T03:11:59.848Z,10.94
2022-10-31T03:14:38.868Z,10.92
2022-10-31T03:17:09.533Z,10.96
2022-10-31T03:19:42.225Z,10.91
2022-10-31T03:22:18.756Z,10.89
2022-10-31T03:24:49.695Z,10.93
2022-10-31T03:27:21.084Z,10.85
2022-10-31T03:29:51.056Z,10.82
2022-10-31T03:32:22.715Z,10.71
2022-10-31T03:34:54.001Z,10.79
2022-10-31T03:37:24.154Z,10.81
2022-10-31T03:39:52.232Z,10.72
2022-10-31T03:42:24.847Z,10.69
2022-10-31T03:44:57.896Z,10.70
2022-10-31T03:47:25.766Z,10.67
2022-10-31T03:49:55.538Z,10.73
2022-10-31T03:52:30.417Z,10.76
2022-10-31T03:55:01.876Z,10.71
2022-10-31T03:57:35.765Z,10.77
2022-10-31T04:00:10.563Z,10.80
2022-10-31T04:02:42.698Z,10.80
2022-10-31T04:05:13.468Z,10.86
2022-10-31T04:07:45.740Z,10.79
2022-10-31T04:10:16.218Z,10.75
2022-10-31T04:12:46.383Z,10.83
2022-10-31T04:15:15.220Z,10.85
2022-10-31T04:17:46.028Z,10.85
2022-10-31T04:20:18.451Z,10.78
2022-10-31T04:22:46.218Z,10.64
2022-10-31T04:25:13.830Z,10.60
2022-10-31T04:27:41.477Z,10.54
2022-10-31T04:30:10.272Z,10.60
2022-10-31T04:32:37.986Z,10.57
2022-10-31T04:35:06.667Z,10.48
2022-10-31T04:37:35.564Z,10.48
2022-10-31T04:40:03.186Z,10.47
2022-10-31T04:42:31.476Z,10.52
2022-10-31T04:44:59.057Z,10.47
2022-10-31T04:47:26.708Z,10.47
2022-10-31T04:49:54.347Z,10.43
2022-10-31T04:52:21.868Z,10.55
2022-10-31T04:54:50.823Z,10.58
2022-10-31T04:57:18.457Z,10.54
2022-10-31T04:59:46.019Z,10.51
2022-10-31T05:02:13.682Z,10.48
2022-10-31T05:04:41.341Z,10.50
2022-10-31T05:07:08.976Z,10.54
2022-10-31T05:09:38.019Z,10.61
2022-10-31T05:12:07.358Z,10.70
2022-10-31T05:14:34.964Z,10.75
2022-10-31T05:17:02.523Z,10.71
2022-10-31T05:19:30.094Z,10.80
2022-10-31T05:21:57.859Z,10.81
2022-10-31T05:24:25.458Z,10.83
2022-10-31T05:26:53.062Z,10.72
2022-10-31T05:29:21.940Z,10.72
2022-10-31T05:31:49.603Z,10.70
2022-10-31T05:34:19.281Z,10.59
2022-10-31T05:36:46.916Z,10.61
2022-10-31T05:39:14.474Z,10.57
2022-10-31T05:41:42.299Z,10.54
2022-10-31T05:44:10.111Z,10.57
2022-10-31T05:46:38.966Z,10.61
2022-10-31T05:49:06.547Z,10.64
2022-10-31T05:51:34.119Z,10.65
2022-10-31T05:54:01.685Z,10.67
2022-10-31T05:56:29.341Z,10.64
2022-10-31T05:58:57.100Z,10.64
2022-10-31T06:01:24.978Z,10.69
2022-10-31T06:03:53.882Z,10.67
2022-10-31T06:06:21.465Z,10.69
2022-10-31T06:08:48.971Z,10.72
2022-10-31T06:11:16.655Z,10.79
2022-10-31T06:13:44.174Z,10.90
2022-10-31T06:16:11.873Z,10.87
2022-10-31T06:18:39.416Z,10.84
2022-10-31T06:21:08.374Z,10.86
2022-10-31T06:23:36.023Z,11.00
2022-10-31T06:26:03.611Z,11.06
2022-10-31T06:28:31.424Z,11.11
2022-10-31T06:30:58.955Z,11.12
2022-10-31T06:33:26.508Z,11.15
2022-10-31T06:35:54.105Z,11.19
2022-10-31T06:38:22.967Z,11.20
2022-10-31T06:40:53.382Z,11.37
2022-10-31T06:43:21.027Z,11.77
2022-10-31T06:45:48.877Z,12.21
2022-10-31T06:48:18.059Z,12.53
2022-10-31T06:50:45.902Z,12.84
2022-10-31T06:53:14.172Z,13.16
2022-10-31T06:55:43.891Z,13.09
2022-10-31T06:58:12.710Z,13.38
2022-10-31T07:00:40.456Z,13.80
2022-10-31T07:03:11.057Z,13.59
2022-10-31T07:05:38.634Z,14.10
2022-10-31T07:08:09.194Z,14.74
2022-10-31T07:10:40.411Z,15.17
2022-10-31T07:13:13.859Z,15.57
2022-10-31T07:15:43.930Z,15.93
2022-10-31T07:18:13.982Z,16.23
2022-10-31T07:20:41.631Z,16.58
2022-10-31T07:23:10.629Z,16.55
2022-10-31T07:25:38.264Z,15.30
2022-10-31T07:28:06.198Z,14.70
2022-10-31T07:30:35.246Z,14.17
2022-10-31T07:33:02.841Z,13.90
2022-10-31T07:35:31.187Z,13.60
2022-10-31T07:37:59.756Z,13.26
2022-10-31T07:40:27.700Z,13.11
2022-10-31T07:42:55.558Z,12.93
2022-10-31T07:45:23.366Z,13.22
2022-10-31T07:47:54.070Z,13.60
2022-10-31T07:50:23.784Z,13.96
2022-10-31T07:53:00.497Z,14.11
2022-10-31T07:55:28.224Z,14.45
2022-10-31T07:58:00.775Z,14.41
2022-10-31T08:00:29.273Z,14.49
2022-10-31T08:03:03.520Z,15.30
2022-10-31T08:05:33.432Z,15.66
2022-10-31T08:08:01.710Z,15.83
2022-10-31T08:10:29.754Z,15.14
2022-10-31T08:12:58.894Z,15.02
2022-10-31T08:15:27.010Z,14.60
2022-10-31T08:17:54.908Z,14.68
2022-10-31T08:20:24.503Z,14.51
2022-10-31T08:22:58.746Z,14.41
2022-10-31T08:25:29.878Z,14.19
2022-10-31T08:28:00.901Z,14.36
2022-10-31T08:30:32.014Z,14.11
2022-10-31T08:33:05.120Z,13.83
2022-10-31T08:35:35.121Z,13.52
2022-10-31T08:38:03.992Z,13.41
2022-10-31T08:40:33.808Z,13.59
2022-10-31T08:43:03.040Z,13.66
2022-10-31T08:45:31.585Z,13.71
2022-10-31T08:48:00.825Z,13.72
2022-10-31T08:50:30.136Z,13.78
2022-10-31T08:53:05.612Z,13.92
2022-10-31T08:55:35.327Z,13.87
2022-10-31T08:58:05.133Z,13.50
2022-10-31T09:00:32.923Z,13.44
2022-10-31T09:03:02.093Z,13.39
2022-10-31T09:05:30.184Z,13.46
2022-10-31T09:07:59.428Z,13.60
2022-10-31T09:10:30.193Z,13.52
2022-10-31T09:12:58.595Z,13.65
2022-10-31T09:15:26.478Z,13.64
2022-10-31T09:17:54.137Z,13.54
2022-10-31T09:20:22.088Z,13.59
2022-10-31T09:22:49.711Z,13.62
2022-10-31T09:25:17.554Z,13.78
2022-10-31T09:27:46.442Z,13.83
2022-10-31T09:30:14.591Z,13.93
2022-10-31T09:32:42.148Z,14.03
2022-10-31T09:35:10.145Z,14.15
2022-10-31T09:37:37.704Z,14.00
2022-10-31T09:40:06.004Z,14.25
2022-10-31T09:42:57.812Z,14.35
2022-10-31T09:45:31.976Z,14.25
2022-10-31T09:48:13.988Z,14.40
2022-10-31T09:50:48.371Z,14.84
2022-10-31T09:53:26.210Z,15.14
2022-10-31T09:55:55.555Z,15.31
2022-10-31T09:58:27.837Z,15.56
2022-10-31T10:00:59.427Z,15.69
2022-10-31T10:03:36.097Z,15.75
2022-10-31T10:06:16.444Z,15.88
2022-10-31T10:08:44.050Z,15.83
2022-10-31T10:11:28.731Z,15.98
2022-10-31T10:14:18.864Z,15.87
2022-10-31T10:17:07.548Z,15.85
2022-10-31T10:19:52.036Z,15.98
2022-10-31T10:22:30.129Z,15.74
2022-10-31T10:25:16.417Z,15.77
2022-10-31T10:27:52.388Z,15.42
2022-10-31T10:30:23.715Z,15.56
2022-10-31T10:32:56.026Z,15.87
2022-10-31T10:35:29.924Z,16.13
2022-10-31T10:38:04.243Z,16.28
2022-10-31T10:40:32.527Z,16.46
2022-10-31T10:43:35.863Z,16.65
2022-10-31T10:46:36.830Z,16.19
2022-10-31T10:49:14.327Z,16.56
2022-10-31T10:55:04.289Z,16.89
2022-10-31T10:57:43.879Z,17.04
2022-10-31T11:00:21.372Z,17.27
2022-10-31T11:02:50.440Z,17.34
2022-10-31T11:05:25.690Z,16.76
2022-10-31T11:07:53.620Z,16.72
2022-10-31T11:10:22.746Z,17.19
2022-10-31T11:13:04.257Z,17.29
2022-10-31T11:15:36.995Z,17.29
2022-10-31T11:18:06.598Z,17.42
2022-10-31T11:20:38.151Z,17.44
2022-10-31T11:23:18.812Z,17.66
2022-10-31T11:25:56.076Z,17.63
2022-10-31T11:28:24.316Z,17.27
2022-10-31T11:30:55.326Z,17.46
2022-10-31T11:33:31.689Z,17.68
2022-10-31T11:35:59.757Z,17.76
2022-10-31T11:38:35.485Z,17.73
2022-10-31T11:41:13.020Z,17.91
2022-10-31T11:43:48.728Z,17.82
2022-10-31T11:46:22.489Z,17.92
2022-10-31T11:48:53.908Z,17.95
2022-10-31T11:51:29.791Z,17.99
2022-10-31T11:54:02.765Z,17.96
2022-10-31T11:56:41.225Z,17.87
2022-10-31T11:59:20.098Z,17.75
2022-10-31T12:01:52.290Z,17.84
2022-10-31T12:04:29.112Z,17.54
2022-10-31T12:06:56.879Z,17.96
2022-10-31T12:09:27.416Z,18.07
2022-10-31T12:12:22.242Z,18.14
2022-10-31T12:14:59.270Z,18.29
2022-10-31T12:17:35.494Z,18.16
2022-10-31T12:20:18.302Z,18.35
2022-10-31T12:22:54.390Z,17.96
2022-10-31T12:25:34.523Z,18.09
2022-10-31T12:28:13.903Z,18.52
2022-10-31T12:30:55.379Z,18.63
2022-10-31T12:33:36.416Z,18.32
2022-10-31T12:36:22.804Z,18.67
2022-10-31T12:39:08.370Z,18.88
2022-10-31T12:41:48.662Z,19.02
2022-10-31T12:44:39.792Z,19.14
2022-10-31T12:47:26.555Z,19.29
2022-10-31T12:50:04.405Z,19.27
2022-10-31T12:52:47.147Z,19.32
2022-10-31T12:55:39.532Z,19.41
2022-10-31T12:58:13.768Z,19.35
2022-10-31T13:00:46.356Z,19.40
2022-10-31T13:03:24.003Z,19.42
2022-10-31T13:05:56.520Z,19.45
2022-10-31T13:08:30.715Z,18.91
2022-10-31T13:11:07.590Z,18.35
2022-10-31T13:13:43.004Z,18.16
2022-10-31T13:16:18.001Z,18.16
2022-10-31T13:18:49.810Z,18.45
2022-10-31T13:21:22.952Z,18.54
2022-10-31T13:23:53.290Z,18.71
2022-10-31T13:26:33.765Z,18.76
2022-10-31T13:29:11.105Z,18.77
2022-10-31T13:31:44.257Z,18.77
2022-10-31T13:34:27.364Z,18.76
2022-10-31T13:37:04.792Z,18.48
2022-10-31T13:42:32.028Z,18.34
2022-10-31T13:45:14.025Z,18.46
2022-10-31T13:47:43.720Z,18.40
2022-10-31T13:50:23.870Z,18.20
2022-10-31T13:52:51.666Z,18.20
2022-10-31T13:55:42.287Z,18.41
2022-10-31T13:58:28.974Z,18.22
2022-10-31T14:01:02.883Z,18.24
2022-10-31T14:04:02.122Z,18.42
2022-10-31T14:06:20.566Z,18.54
2022-10-31T14:08:51.321Z,18.33
2022-10-31T14:11:31.610Z,18.24
2022-10-31T14:14:04.381Z,18.35
2022-10-31T14:16:34.445Z,18.31
2022-10-31T14:19:08.996Z,18.37
2022-10-31T14:21:42.509Z,18.36
2022-10-31T14:24:17.611Z,18.27
2022-10-31T14:26:55.974Z,18.16
2022-10-31T14:29:29.950Z,18.10
2022-10-31T14:32:01.727Z,18.08
2022-10-31T14:34:32.144Z,17.99
2022-10-31T14:37:32.770Z,17.94
2022-10-31T14:40:10.438Z,17.97
2022-10-31T14:42:53.506Z,18.09
2022-10-31T14:45:33.277Z,18.13
2022-10-31T14:48:12.297Z,18.13
2022-10-31T14:50:46.628Z,18.30
2022-10-31T14:53:22.373Z,18.43
2022-10-31T14:55:53.391Z,18.50
2022-10-31T14:58:24.291Z,18.64
2022-10-31T15:00:57.827Z,18.73
2022-10-31T15:03:32.353Z,18.81
2022-10-31T15:06:07.050Z,18.83
2022-10-31T15:08:39.758Z,18.85
2022-10-31T15:11:16.518Z,18.79
2022-10-31T15:13:48.501Z,18.74
2022-10-31T15:16:21.213Z,18.62
2022-10-31T15:18:55.702Z,18.43
2022-10-31T15:21:25.742Z,18.24
2022-10-31T15:23:56.052Z,18.03
2022-10-31T15:26:25.830Z,17.83
2022-10-31T15:29:02.317Z,17.60
2022-10-31T15:31:32.355Z,17.38
2022-10-31T15:34:04.407Z,17.16
2022-10-31T15:36:37.457Z,16.99
2022-10-31T15:39:06.400Z,16.82
2022-10-31T15:41:40.096Z,16.63
2022-10-31T15:44:18.617Z,16.48
2022-10-31T15:46:57.065Z,16.42
2022-10-31T15:49:36.018Z,16.44
2022-10-31T15:52:12.461Z,16.45
2022-10-31T15:54:48.894Z,16.49
2022-10-31T15:57:18.289Z,16.47
2022-10-31T15:59:48.662Z,16.46
2022-10-31T16:02:25.261Z,16.44
2022-10-31T16:04:55.821Z,16.41
2022-10-31T16:07:24.461Z,16.45
2022-10-31T16:09:55.053Z,16.44
2022-10-31T16:12:25.416Z,16.40
2022-10-31T16:14:55.167Z,16.37
2022-10-31T16:17:28.454Z,16.31
2022-10-31T16:19:59.054Z,16.38
2022-10-31T16:22:30.041Z,16.33
2022-10-31T16:25:03.319Z,16.29
2022-10-31T16:27:33.696Z,16.25
2022-10-31T16:30:05.222Z,16.15
2022-10-31T16:32:36.557Z,16.00
2022-10-31T16:35:20.981Z,16.03
2022-10-31T16:37:48.567Z,16.10
2022-10-31T16:40:16.925Z,16.17
2022-10-31T16:42:46.310Z,16.22
2022-10-31T16:45:19.323Z,16.31
2022-10-31T16:47:49.275Z,16.34
2022-10-31T16:50:19.226Z,16.30
2022-10-31T16:53:15.417Z,16.32
2022-10-31T16:55:36.159Z,16.38
2022-10-31T16:58:04.197Z,16.34
2022-10-31T17:00:32.123Z,16.23
2022-10-31T17:03:02.353Z,16.30
2022-10-31T17:05:31.065Z,16.23
2022-10-31T17:08:00.602Z,16.00
2022-10-31T17:10:28.919Z,16.02
2022-10-31T17:12:59.992Z,15.95
2022-10-31T17:15:28.801Z,15.87
2022-10-31T17:17:56.460Z,15.79
2022-10-31T17:20:28.124Z,15.79
2022-10-31T17:22:56.607Z,15.74
2022-10-31T17:25:27.767Z,15.67
2022-10-31T17:27:56.013Z,15.73
2022-10-31T17:30:24.194Z,15.69
2022-10-31T17:32:52.989Z,15.66
2022-10-31T17:35:20.900Z,15.66
2022-10-31T17:37:50.263Z,15.65
2022-10-31T17:40:20.133Z,15.61
2022-10-31T17:42:52.091Z,15.57
2022-10-31T17:45:20.392Z,15.51
2022-10-31T17:47:49.318Z,15.46
2022-10-31T17:50:17.406Z,15.44
2022-10-31T17:52:45.462Z,15.41
2022-10-31T17:55:14.619Z,15.32
2022-10-31T17:57:43.940Z,15.28
2022-10-31T18:00:14.775Z,15.29
2022-10-31T18:02:42.642Z,15.31
2022-10-31T18:05:11.068Z,15.23
2022-10-31T18:07:38.945Z,15.15
2022-10-31T18:10:08.104Z,15.09
2022-10-31T18:12:38.519Z,14.93
2022-10-31T18:15:06.998Z,14.89
2022-10-31T18:17:36.908Z,14.91
2022-10-31T18:20:08.045Z,14.87
2022-10-31T18:22:35.789Z,14.75
2022-10-31T18:25:04.037Z,14.90
2022-10-31T18:27:31.763Z,14.81
2022-10-31T18:30:00.660Z,14.88
2022-10-31T18:32:28.254Z,14.84
2022-10-31T18:34:56.016Z,14.76
2022-10-31T18:37:23.657Z,14.79
2022-10-31T18:39:51.267Z,14.83
2022-10-31T18:42:18.935Z,14.80
2022-10-31T18:44:46.575Z,14.81
2022-10-31T18:47:15.872Z,14.75
2022-10-31T18:49:43.683Z,14.71
2022-10-31T18:52:11.235Z,14.65
2022-10-31T18:54:38.816Z,14.59
2022-10-31T18:57:06.415Z,14.56
2022-10-31T18:59:34.013Z,14.54
2022-10-31T19:02:02.081Z,14.51
2022-10-31T19:04:31.129Z,14.52
2022-10-31T19:06:58.641Z,14.47
2022-10-31T19:09:26.275Z,14.47
2022-10-31T19:11:53.796Z,14.35
2022-10-31T19:14:21.523Z,14.31
2022-10-31T19:16:51.995Z,14.25
2022-10-31T19:19:20.859Z,14.19
2022-10-31T19:21:50.073Z,14.17
2022-10-31T19:24:17.769Z,14.13
2022-10-31T19:26:45.420Z,14.11
2022-10-31T19:29:13.333Z,14.08
2022-10-31T19:31:42.291Z,14.03
2022-10-31T19:34:11.290Z,14.03
2022-10-31T19:36:39.098Z,13.97
2022-10-31T19:39:13.915Z,13.90
2022-10-31T19:41:41.935Z,13.86
2022-10-31T19:44:13.232Z,13.83
2022-10-31T19:46:52.985Z,13.79
2022-10-31T19:49:21.318Z,13.74
2022-10-31T19:51:49.008Z,13.69
2022-10-31T19:54:18.137Z,13.66
2022-10-31T19:56:45.938Z,13.64
2022-10-31T19:59:13.957Z,13.62
2022-10-31T20:01:41.880Z,13.60
2022-10-31T20:04:09.475Z,13.60
2022-10-31T20:06:39.417Z,13.60
2022-10-31T20:09:09.582Z,13.62
2022-10-31T20:11:39.258Z,13.66
2022-10-31T20:14:08.921Z,13.67
2022-10-31T20:16:36.600Z,13.67
2022-10-31T20:19:04.455Z,13.67
2022-10-31T20:21:33.283Z,13.67
2022-10-31T20:24:02.517Z,13.67
2022-10-31T20:26:31.405Z,13.65
2022-10-31T20:29:01.865Z,13.64
2022-10-31T20:31:31.067Z,13.64
2022-10-31T20:33:59.120Z,13.65
2022-10-31T20:36:28.732Z,13.62
2022-10-31T20:38:56.425Z,13.62
2022-10-31T20:41:24.149Z,13.63
2022-10-31T20:43:52.070Z,13.57
2022-10-31T20:46:23.110Z,13.57
2022-10-31T20:48:54.304Z,13.55
2022-10-31T20:51:24.875Z,13.54
2022-10-31T20:53:53.698Z,13.53
2022-10-31T20:56:23.012Z,13.46
2022-10-31T20:58:50.938Z,13.43
2022-10-31T21:01:22.099Z,13.35
2022-10-31T21:03:50.500Z,13.30
2022-10-31T21:06:19.796Z,13.28
2022-10-31T21:08:47.614Z,13.29
2022-10-31T21:11:17.463Z,13.27
2022-10-31T21:13:46.431Z,13.24
2022-10-31T21:16:16.026Z,13.23
2022-10-31T21:18:46.300Z,13.16
2022-10-31T21:21:16.156Z,13.17
2022-10-31T21:23:45.004Z,13.16
2022-10-31T21:26:14.716Z,13.19
2022-10-31T21:28:42.647Z,13.14
2022-10-31T21:31:12.312Z,13.07
2022-10-31T21:33:40.692Z,13.04
2022-10-31T21:36:10.740Z,12.96
2022-10-31T21:38:39.502Z,12.94
2022-10-31T21:41:08.975Z,12.94
2022-10-31T21:43:37.450Z,12.87
2022-10-31T21:46:06.063Z,12.77
2022-10-31T21:48:39.243Z,12.68
2022-10-31T21:51:09.998Z,12.66
2022-10-31T21:53:55.332Z,12.63
2022-10-31T21:56:23.831Z,12.60
2022-10-31T21:58:51.945Z,12.64
2022-10-31T22:01:20.484Z,12.61
2022-10-31T22:03:48.128Z,12.63
2022-10-31T22:06:17.435Z,12.61
2022-10-31T22:08:45.123Z,12.71
2022-10-31T22:11:15.008Z,12.58
2022-10-31T22:13:43.894Z,12.61
2022-10-31T22:16:13.312Z,12.57
2022-10-31T22:18:41.837Z,12.58
2022-10-31T22:21:10.900Z,12.43
2022-10-31T22:23:40.730Z,12.43
2022-10-31T22:26:10.004Z,12.36
2022-10-31T22:28:37.615Z,12.30
2022-10-31T22:31:05.962Z,12.29
2022-10-31T22:33:34.058Z,12.29
2022-10-31T22:36:02.978Z,12.21
2022-10-31T22:38:30.685Z,12.31
2022-10-31T22:41:00.318Z,12.23
2022-10-31T22:43:28.736Z,12.21
2022-10-31T22:46:00.442Z,12.24
2022-10-31T22:48:28.111Z,12.20
2022-10-31T22:50:55.651Z,12.25
2022-10-31T22:53:23.260Z,12.30
2022-10-31T22:55:51.302Z,12.25
2022-10-31T22:58:20.228Z,12.24
2022-10-31T23:00:47.961Z,12.26
2022-10-31T23:03:15.558Z,12.27
2022-10-31T23:05:43.168Z,12.33
2022-10-31T23:08:10.774Z,12.37
2022-10-31T23:10:42.015Z,12.40
2022-10-31T23:13:27.954Z,12.36
2022-10-31T23:15:56.888Z,12.40
2022-10-31T23:18:48.384Z,12.42
2022-10-31T23:21:32.107Z,12.45
2022-10-31T23:24:00.006Z,12.43
2022-10-31T23:26:45.375Z,12.41
2022-10-31T23:29:12.927Z,12.48
2022-10-31T23:31:41.853Z,12.51
2022-10-31T23:34:09.490Z,12.55
2022-10-31T23:36:37.150Z,12.59
2022-10-31T23:39:05.138Z,12.64
2022-10-31T23:41:32.688Z,12.69
2022-10-31T23:44:00.278Z,12.72
2022-10-31T23:46:28.233Z,12.73
2022-10-31T23:48:57.107Z,12.79
2022-10-31T23:51:24.756Z,12.74
2022-10-31T23:53:52.305Z,12.78
2022-10-31T23:56:19.870Z,12.67
2022-10-31T23:58:47.535Z,12.69
